sensor_id;sensor_type;location;lat;lon;timestamp;pressure;altitude;pressure_sealevel;temperature;humidity
1726;BME280;41776;48.260;8.928;2023-05-02T00:00:40;52491.91;;;-145.69;100.00
1726;BME280;41776;48.260;8.928;2023-05-02T00:03:09;52519.63;;;-145.69;100.00
1726;BME280;41776;48.260;8.928;2023-05-02T00:05:36;52523.59;;;-145.69;100.00
1726;BME280;41776;48.260;8.928;2023-05-02T00:08:02;52529.53;;;-145.69;100.00
1726;BME280;41776;48.260;8.928;2023-05-02T00:10:29;52523.59;;;-145.69;100.00
1726;BME280;41776;48.260;8.928;2023-05-02T00:12:56;52489.94;;;-145.69;100.00
1726;BME280;41776;48.260;8.928;2023-05-02T00:15:23;52555.28;;;-145.69;100.00
1726;BME280;41776;48.260;8.928;2023-05-02T00:17:51;52489.94;;;-145.69;100.00
1726;BME280;41776;48.260;8.928;2023-05-02T00:20:18;52505.78;;;-145.69;100.00
1726;BME280;41776;48.260;8.928;2023-05-02T00:22:44;52533.50;;;-145.69;100.00
1726;BME280;41776;48.260;8.928;2023-05-02T00:25:11;52525.59;;;-145.69;100.00
1726;BME280;41776;48.260;8.928;2023-05-02T00:27:40;52535.47;;;-145.69;100.00
1726;BME280;41776;48.260;8.928;2023-05-02T00:30:09;52507.75;;;-145.69;100.00
1726;BME280;41776;48.260;8.928;2023-05-02T00:32:35;52513.69;;;-145.69;100.00
1726;BME280;41776;48.260;8.928;2023-05-02T00:35:02;52531.53;;;-145.69;100.00
1726;BME280;41776;48.260;8.928;2023-05-02T00:37:29;52547.38;;;-145.69;100.00
1726;BME280;41776;48.260;8.928;2023-05-02T00:39:55;52527.56;;;-145.69;100.00
1726;BME280;41776;48.260;8.928;2023-05-02T00:42:22;52533.50;;;-145.69;100.00
1726;BME280;41776;48.260;8.928;2023-05-02T00:44:48;52495.88;;;-145.69;100.00
1726;BME280;41776;48.260;8.928;2023-05-02T00:47:16;52527.56;;;-145.69;100.00
1726;BME280;41776;48.260;8.928;2023-05-02T00:49:43;52511.72;;;-145.69;100.00
1726;BME280;41776;48.260;8.928;2023-05-02T00:52:09;52515.69;;;-145.69;100.00
1726;BME280;41776;48.260;8.928;2023-05-02T00:54:36;52511.72;;;-145.69;100.00
1726;BME280;41776;48.260;8.928;2023-05-02T00:57:03;52501.81;;;-145.69;100.00
1726;BME280;41776;48.260;8.928;2023-05-02T00:59:30;52563.22;;;-145.69;100.00
1726;BME280;41776;48.260;8.928;2023-05-02T01:02:03;52499.84;;;-145.69;100.00
1726;BME280;41776;48.260;8.928;2023-05-02T01:04:44;52501.81;;;-145.69;100.00
1726;BME280;41776;48.260;8.928;2023-05-02T01:07:25;52515.69;;;-145.69;100.00
1726;BME280;41776;48.260;8.928;2023-05-02T01:10:00;52547.38;;;-145.69;100.00
1726;BME280;41776;48.260;8.928;2023-05-02T01:12:40;52501.81;;;-145.69;100.00
1726;BME280;41776;48.260;8.928;2023-05-02T01:15:09;52489.94;;;-145.69;100.00
1726;BME280;41776;48.260;8.928;2023-05-02T01:17:38;52509.75;;;-145.69;100.00
1726;BME280;41776;48.260;8.928;2023-05-02T01:20:11;52505.78;;;-145.69;100.00
1726;BME280;41776;48.260;8.928;2023-05-02T01:22:39;52515.69;;;-145.69;100.00
1726;BME280;41776;48.260;8.928;2023-05-02T01:25:13;52507.75;;;-145.69;100.00
1726;BME280;41776;48.260;8.928;2023-05-02T01:27:52;52521.63;;;-145.69;100.00
1726;BME280;41776;48.260;8.928;2023-05-02T01:30:26;52491.91;;;-145.69;100.00
1726;BME280;41776;48.260;8.928;2023-05-02T01:32:54;52480.03;;;-145.69;100.00
1726;BME280;41776;48.260;8.928;2023-05-02T01:35:23;52448.34;;;-145.69;100.00
1726;BME280;41776;48.260;8.928;2023-05-02T01:37:51;52497.84;;;-145.69;100.00
1726;BME280;41776;48.260;8.928;2023-05-02T01:40:20;52511.72;;;-145.69;100.00
1726;BME280;41776;48.260;8.928;2023-05-02T01:42:49;52495.88;;;-145.69;100.00
1726;BME280;41776;48.260;8.928;2023-05-02T01:45:18;52511.72;;;-145.69;100.00
1726;BME280;41776;48.260;8.928;2023-05-02T01:47:47;52513.69;;;-145.69;100.00
1726;BME280;41776;48.260;8.928;2023-05-02T01:50:17;52515.69;;;-145.69;100.00
1726;BME280;41776;48.260;8.928;2023-05-02T01:52:46;52491.91;;;-145.69;100.00
1726;BME280;41776;48.260;8.928;2023-05-02T01:55:14;52499.84;;;-145.69;100.00
1726;BME280;41776;48.260;8.928;2023-05-02T01:57:44;52527.56;;;-145.69;100.00
1726;BME280;41776;48.260;8.928;2023-05-02T02:00:12;52527.56;;;-145.69;100.00
1726;BME280;41776;48.260;8.928;2023-05-02T02:02:42;52489.94;;;-145.69;100.00
1726;BME280;41776;48.260;8.928;2023-05-02T02:05:11;52531.53;;;-145.69;100.00
1726;BME280;41776;48.260;8.928;2023-05-02T02:07:39;52478.06;;;-145.69;100.00
1726;BME280;41776;48.260;8.928;2023-05-02T02:10:06;52507.75;;;-145.69;100.00
1726;BME280;41776;48.260;8.928;2023-05-02T02:12:37;52503.81;;;-145.69;100.00
1726;BME280;41776;48.260;8.928;2023-05-02T02:15:08;52476.06;;;-145.69;100.00
1726;BME280;41776;48.260;8.928;2023-05-02T02:17:41;52487.97;;;-145.69;100.00
1726;BME280;41776;48.260;8.928;2023-05-02T02:20:11;52519.63;;;-145.69;100.00
1726;BME280;41776;48.260;8.928;2023-05-02T02:22:41;52505.78;;;-145.69;100.00
1726;BME280;41776;48.260;8.928;2023-05-02T02:25:10;52505.78;;;-145.69;100.00
1726;BME280;41776;48.260;8.928;2023-05-02T02:27:37;52507.75;;;-145.69;100.00
1726;BME280;41776;48.260;8.928;2023-05-02T02:30:04;52521.63;;;-145.69;100.00
1726;BME280;41776;48.260;8.928;2023-05-02T02:32:32;52505.78;;;-145.69;100.00
1726;BME280;41776;48.260;8.928;2023-05-02T02:34:59;52503.81;;;-145.69;100.00
1726;BME280;41776;48.260;8.928;2023-05-02T02:37:30;52523.59;;;-145.69;100.00
1726;BME280;41776;48.260;8.928;2023-05-02T02:40:07;52507.75;;;-145.69;100.00
1726;BME280;41776;48.260;8.928;2023-05-02T02:42:38;52525.59;;;-145.69;100.00
1726;BME280;41776;48.260;8.928;2023-05-02T02:45:16;52485.97;;;-145.69;100.00
1726;BME280;41776;48.260;8.928;2023-05-02T02:47:48;52505.78;;;-145.69;100.00
1726;BME280;41776;48.260;8.928;2023-05-02T02:50:19;52499.84;;;-145.69;100.00
1726;BME280;41776;48.260;8.928;2023-05-02T02:52:53;52501.81;;;-145.69;100.00
1726;BME280;41776;48.260;8.928;2023-05-02T02:55:29;52478.06;;;-145.69;100.00
1726;BME280;41776;48.260;8.928;2023-05-02T02:58:00;52503.81;;;-145.69;100.00
1726;BME280;41776;48.260;8.928;2023-05-02T03:00:30;52525.59;;;-145.69;100.00
1726;BME280;41776;48.260;8.928;2023-05-02T03:02:57;52541.44;;;-145.69;100.00
1726;BME280;41776;48.260;8.928;2023-05-02T03:05:24;52523.59;;;-145.69;100.00
1726;BME280;41776;48.260;8.928;2023-05-02T03:07:52;52511.72;;;-145.69;100.00
1726;BME280;41776;48.260;8.928;2023-05-02T03:10:20;52519.63;;;-145.69;100.00
1726;BME280;41776;48.260;8.928;2023-05-02T03:12:47;52491.91;;;-145.69;100.00
1726;BME280;41776;48.260;8.928;2023-05-02T03:15:24;52547.38;;;-145.69;100.00
1726;BME280;41776;48.260;8.928;2023-05-02T03:17:54;52539.44;;;-145.69;100.00
1726;BME280;41776;48.260;8.928;2023-05-02T03:20:20;52489.94;;;-145.69;100.00
1726;BME280;41776;48.260;8.928;2023-05-02T03:22:47;52517.66;;;-145.69;100.00
1726;BME280;41776;48.260;8.928;2023-05-02T03:25:15;52511.72;;;-145.69;100.00
1726;BME280;41776;48.260;8.928;2023-05-02T03:27:42;52519.63;;;-145.69;100.00
1726;BME280;41776;48.260;8.928;2023-05-02T03:30:09;52517.66;;;-145.69;100.00
1726;BME280;41776;48.260;8.928;2023-05-02T03:32:35;52491.91;;;-145.69;100.00
1726;BME280;41776;48.260;8.928;2023-05-02T03:35:02;52491.91;;;-145.69;100.00
1726;BME280;41776;48.260;8.928;2023-05-02T03:37:28;52487.97;;;-145.69;100.00
1726;BME280;41776;48.260;8.928;2023-05-02T03:39:55;52489.94;;;-145.69;100.00
1726;BME280;41776;48.260;8.928;2023-05-02T03:42:23;52495.88;;;-145.69;100.00
1726;BME280;41776;48.260;8.928;2023-05-02T03:44:51;52527.56;;;-145.69;100.00
1726;BME280;41776;48.260;8.928;2023-05-02T03:47:17;52515.69;;;-145.69;100.00
1726;BME280;41776;48.260;8.928;2023-05-02T03:49:44;52523.59;;;-145.69;100.00
1726;BME280;41776;48.260;8.928;2023-05-02T03:52:11;52519.63;;;-145.69;100.00
1726;BME280;41776;48.260;8.928;2023-05-02T03:54:37;52515.69;;;-145.69;100.00
1726;BME280;41776;48.260;8.928;2023-05-02T03:57:04;52519.63;;;-145.69;100.00
1726;BME280;41776;48.260;8.928;2023-05-02T03:59:33;52497.84;;;-145.69;100.00
1726;BME280;41776;48.260;8.928;2023-05-02T04:01:59;52515.69;;;-145.69;100.00
1726;BME280;41776;48.260;8.928;2023-05-02T04:04:26;52531.53;;;-145.69;100.00
1726;BME280;41776;48.260;8.928;2023-05-02T04:06:52;52497.84;;;-145.69;100.00
1726;BME280;41776;48.260;8.928;2023-05-02T04:09:19;52525.59;;;-145.69;100.00
1726;BME280;41776;48.260;8.928;2023-05-02T04:11:49;52511.72;;;-145.69;100.00
1726;BME280;41776;48.260;8.928;2023-05-02T04:14:15;52527.56;;;-145.69;100.00
1726;BME280;41776;48.260;8.928;2023-05-02T04:16:47;52521.63;;;-145.69;100.00
1726;BME280;41776;48.260;8.928;2023-05-02T04:19:14;52507.75;;;-145.69;100.00
1726;BME280;41776;48.260;8.928;2023-05-02T04:21:42;52484.00;;;-145.69;100.00
1726;BME280;41776;48.260;8.928;2023-05-02T04:24:09;52529.53;;;-145.69;100.00
1726;BME280;41776;48.260;8.928;2023-05-02T04:26:36;52543.41;;;-145.69;100.00
1726;BME280;41776;48.260;8.928;2023-05-02T04:29:02;52468.16;;;-145.69;100.00
1726;BME280;41776;48.260;8.928;2023-05-02T04:31:30;52476.06;;;-145.69;100.00
1726;BME280;41776;48.260;8.928;2023-05-02T04:33:58;52491.91;;;-145.69;100.00
1726;BME280;41776;48.260;8.928;2023-05-02T04:36:24;52537.47;;;-145.69;100.00
1726;BME280;41776;48.260;8.928;2023-05-02T04:38:52;52507.75;;;-145.69;100.00
1726;BME280;41776;48.260;8.928;2023-05-02T04:41:19;52529.53;;;-145.69;100.00
1726;BME280;41776;48.260;8.928;2023-05-02T04:43:45;52484.00;;;-145.69;100.00
1726;BME280;41776;48.260;8.928;2023-05-02T04:46:12;52507.75;;;-145.69;100.00
1726;BME280;41776;48.260;8.928;2023-05-02T04:48:38;52503.81;;;-145.69;100.00
1726;BME280;41776;48.260;8.928;2023-05-02T04:51:07;52507.75;;;-145.69;100.00
1726;BME280;41776;48.260;8.928;2023-05-02T04:53:34;52515.69;;;-145.69;100.00
1726;BME280;41776;48.260;8.928;2023-05-02T04:56:01;52484.00;;;-145.69;100.00
1726;BME280;41776;48.260;8.928;2023-05-02T04:58:27;52480.03;;;-145.69;100.00
1726;BME280;41776;48.260;8.928;2023-05-02T05:00:54;52525.59;;;-145.69;100.00
1726;BME280;41776;48.260;8.928;2023-05-02T05:03:20;52511.72;;;-145.69;100.00
1726;BME280;41776;48.260;8.928;2023-05-02T05:05:47;52487.97;;;-145.69;100.00
1726;BME280;41776;48.260;8.928;2023-05-02T05:08:15;52515.69;;;-145.69;100.00
1726;BME280;41776;48.260;8.928;2023-05-02T05:10:41;52511.72;;;-145.69;100.00
1726;BME280;41776;48.260;8.928;2023-05-02T05:13:08;52519.63;;;-145.69;100.00
1726;BME280;41776;48.260;8.928;2023-05-02T05:15:36;52482.00;;;-145.69;100.00
1726;BME280;41776;48.260;8.928;2023-05-02T05:18:03;52487.97;;;-145.69;100.00
1726;BME280;41776;48.260;8.928;2023-05-02T05:20:29;52499.84;;;-145.69;100.00
1726;BME280;41776;48.260;8.928;2023-05-02T05:22:56;52541.44;;;-145.69;100.00
1726;BME280;41776;48.260;8.928;2023-05-02T05:25:24;52509.75;;;-145.69;100.00
1726;BME280;41776;48.260;8.928;2023-05-02T05:27:51;52535.47;;;-145.69;100.00
1726;BME280;41776;48.260;8.928;2023-05-02T05:30:17;52499.84;;;-145.69;100.00
1726;BME280;41776;48.260;8.928;2023-05-02T05:32:44;52507.75;;;-145.69;100.00
1726;BME280;41776;48.260;8.928;2023-05-02T05:35:10;52535.47;;;-145.69;100.00
1726;BME280;41776;48.260;8.928;2023-05-02T05:37:37;52480.03;;;-145.69;100.00
1726;BME280;41776;48.260;8.928;2023-05-02T05:40:05;52501.81;;;-145.69;100.00
1726;BME280;41776;48.260;8.928;2023-05-02T05:42:33;52484.00;;;-145.69;100.00
1726;BME280;41776;48.260;8.928;2023-05-02T05:45:00;52515.69;;;-145.69;100.00
1726;BME280;41776;48.260;8.928;2023-05-02T05:47:26;52495.88;;;-145.69;100.00
1726;BME280;41776;48.260;8.928;2023-05-02T05:49:53;52505.78;;;-145.69;100.00
1726;BME280;41776;48.260;8.928;2023-05-02T05:52:20;52507.75;;;-145.69;100.00
1726;BME280;41776;48.260;8.928;2023-05-02T05:54:46;52491.91;;;-145.69;100.00
1726;BME280;41776;48.260;8.928;2023-05-02T05:57:13;52499.84;;;-145.69;100.00
1726;BME280;41776;48.260;8.928;2023-05-02T05:59:41;52482.00;;;-145.69;100.00
1726;BME280;41776;48.260;8.928;2023-05-02T06:02:07;52499.84;;;-145.69;100.00
1726;BME280;41776;48.260;8.928;2023-05-02T06:04:34;52517.66;;;-145.69;100.00
1726;BME280;41776;48.260;8.928;2023-05-02T06:07:00;52497.84;;;-145.69;100.00
1726;BME280;41776;48.260;8.928;2023-05-02T06:09:26;52503.81;;;-145.69;100.00
1726;BME280;41776;48.260;8.928;2023-05-02T06:11:53;52495.88;;;-145.69;100.00
1726;BME280;41776;48.260;8.928;2023-05-02T06:14:19;52484.00;;;-145.69;100.00
1726;BME280;41776;48.260;8.928;2023-05-02T06:16:47;52470.13;;;-145.69;100.00
1726;BME280;41776;48.260;8.928;2023-05-02T06:19:14;52495.88;;;-145.69;100.00
1726;BME280;41776;48.260;8.928;2023-05-02T06:21:40;52470.13;;;-145.69;100.00
1726;BME280;41776;48.260;8.928;2023-05-02T06:24:07;52487.97;;;-145.69;100.00
1726;BME280;41776;48.260;8.928;2023-05-02T06:26:33;52495.88;;;-145.69;100.00
1726;BME280;41776;48.260;8.928;2023-05-02T06:29:00;52476.06;;;-145.69;100.00
1726;BME280;41776;48.260;8.928;2023-05-02T06:31:26;52501.81;;;-145.69;100.00
1726;BME280;41776;48.260;8.928;2023-05-02T06:33:54;52478.06;;;-145.69;100.00
1726;BME280;41776;48.260;8.928;2023-05-02T06:36:21;52503.81;;;-145.69;100.00
1726;BME280;41776;48.260;8.928;2023-05-02T06:38:47;52424.59;;;-145.69;100.00
1726;BME280;41776;48.260;8.928;2023-05-02T06:41:14;52460.22;;;-145.69;100.00
1726;BME280;41776;48.260;8.928;2023-05-02T06:43:40;52499.84;;;-145.69;100.00
1726;BME280;41776;48.260;8.928;2023-05-02T06:46:07;52460.22;;;-145.69;100.00
1726;BME280;41776;48.260;8.928;2023-05-02T06:48:34;52472.13;;;-145.69;100.00
1726;BME280;41776;48.260;8.928;2023-05-02T06:51:02;52503.81;;;-145.69;100.00
1726;BME280;41776;48.260;8.928;2023-05-02T06:53:29;52470.13;;;-145.69;100.00
1726;BME280;41776;48.260;8.928;2023-05-02T06:55:55;52468.16;;;-145.69;100.00
1726;BME280;41776;48.260;8.928;2023-05-02T06:58:22;52466.16;;;-145.69;100.00
1726;BME280;41776;48.260;8.928;2023-05-02T07:00:49;52466.16;;;-145.69;100.00
1726;BME280;41776;48.260;8.928;2023-05-02T07:03:15;52482.00;;;-145.69;100.00
1726;BME280;41776;48.260;8.928;2023-05-02T07:05:41;52476.06;;;-145.69;100.00
1726;BME280;41776;48.260;8.928;2023-05-02T07:08:09;52499.84;;;-145.69;100.00
1726;BME280;41776;48.260;8.928;2023-05-02T07:10:36;52485.97;;;-145.69;100.00
1726;BME280;41776;48.260;8.928;2023-05-02T07:13:02;52466.16;;;-145.69;100.00
1726;BME280;41776;48.260;8.928;2023-05-02T07:15:29;52460.22;;;-145.69;100.00
1726;BME280;41776;48.260;8.928;2023-05-02T07:17:55;52444.38;;;-145.69;100.00
1726;BME280;41776;48.260;8.928;2023-05-02T07:20:22;52476.06;;;-145.69;100.00
1726;BME280;41776;48.260;8.928;2023-05-02T07:22:48;52480.03;;;-145.69;100.00
1726;BME280;41776;48.260;8.928;2023-05-02T07:25:16;52476.06;;;-145.69;100.00
1726;BME280;41776;48.260;8.928;2023-05-02T07:27:43;52468.16;;;-145.69;100.00
1726;BME280;41776;48.260;8.928;2023-05-02T07:30:10;52480.03;;;-145.69;100.00
1726;BME280;41776;48.260;8.928;2023-05-02T07:32:37;52470.13;;;-145.69;100.00
1726;BME280;41776;48.260;8.928;2023-05-02T07:35:03;52468.16;;;-145.69;100.00
1726;BME280;41776;48.260;8.928;2023-05-02T07:37:32;52464.19;;;-145.69;100.00
1726;BME280;41776;48.260;8.928;2023-05-02T07:39:58;52466.16;;;-145.69;100.00
1726;BME280;41776;48.260;8.928;2023-05-02T07:42:29;52472.13;;;-145.69;100.00
1726;BME280;41776;48.260;8.928;2023-05-02T07:44:55;52460.22;;;-145.69;100.00
1726;BME280;41776;48.260;8.928;2023-05-02T07:47:22;52476.06;;;-145.69;100.00
1726;BME280;41776;48.260;8.928;2023-05-02T07:49:50;52452.31;;;-145.69;100.00
1726;BME280;41776;48.260;8.928;2023-05-02T07:52:16;52478.06;;;-145.69;100.00
1726;BME280;41776;48.260;8.928;2023-05-02T07:54:43;52440.44;;;-145.69;100.00
1726;BME280;41776;48.260;8.928;2023-05-02T07:57:11;52434.47;;;-145.69;100.00
1726;BME280;41776;48.260;8.928;2023-05-02T07:59:38;52456.28;;;-145.69;100.00
1726;BME280;41776;48.260;8.928;2023-05-02T08:02:05;52460.22;;;-145.69;100.00
1726;BME280;41776;48.260;8.928;2023-05-02T08:04:32;52440.44;;;-145.69;100.00
1726;BME280;41776;48.260;8.928;2023-05-02T08:06:58;52400.81;;;-145.69;100.00
1726;BME280;41776;48.260;8.928;2023-05-02T08:09:25;52400.81;;;-145.69;100.00
1726;BME280;41776;48.260;8.928;2023-05-02T08:11:51;52390.91;;;-145.69;100.00
1726;BME280;41776;48.260;8.928;2023-05-02T08:14:18;52404.78;;;-145.69;100.00
1726;BME280;41776;48.260;8.928;2023-05-02T08:16:46;52452.31;;;-145.69;100.00
1726;BME280;41776;48.260;8.928;2023-05-02T08:19:15;52450.31;;;-145.69;100.00
1726;BME280;41776;48.260;8.928;2023-05-02T08:21:41;52410.72;;;-145.69;100.00
1726;BME280;41776;48.260;8.928;2023-05-02T08:24:08;52432.50;;;-145.69;100.00
1726;BME280;41776;48.260;8.928;2023-05-02T08:26:34;52428.53;;;-145.69;100.00
1726;BME280;41776;48.260;8.928;2023-05-02T08:29:01;52424.59;;;-145.69;100.00
1726;BME280;41776;48.260;8.928;2023-05-02T08:31:28;52428.53;;;-145.69;100.00
1726;BME280;41776;48.260;8.928;2023-05-02T08:33:56;52414.69;;;-145.69;100.00
1726;BME280;41776;48.260;8.928;2023-05-02T08:36:23;52426.56;;;-145.69;100.00
1726;BME280;41776;48.260;8.928;2023-05-02T08:38:50;52448.34;;;-145.69;100.00
1726;BME280;41776;48.260;8.928;2023-05-02T08:41:18;52416.66;;;-145.69;100.00
1726;BME280;41776;48.260;8.928;2023-05-02T08:43:45;52420.63;;;-145.69;100.00
1726;BME280;41776;48.260;8.928;2023-05-02T08:46:13;52452.31;;;-145.69;100.00
1726;BME280;41776;48.260;8.928;2023-05-02T08:48:41;52442.41;;;-145.69;100.00
1726;BME280;41776;48.260;8.928;2023-05-02T08:51:11;52452.31;;;-145.69;100.00
1726;BME280;41776;48.260;8.928;2023-05-02T08:53:39;52408.75;;;-145.69;100.00
1726;BME280;41776;48.260;8.928;2023-05-02T08:56:06;52426.56;;;-145.69;100.00
1726;BME280;41776;48.260;8.928;2023-05-02T08:58:34;52444.38;;;-145.69;100.00
1726;BME280;41776;48.260;8.928;2023-05-02T09:01:01;52408.75;;;-145.69;100.00
1726;BME280;41776;48.260;8.928;2023-05-02T09:03:30;52416.66;;;-145.69;100.00
1726;BME280;41776;48.260;8.928;2023-05-02T09:06:05;52424.59;;;-145.69;100.00
1726;BME280;41776;48.260;8.928;2023-05-02T09:08:34;52392.91;;;-145.69;100.00
1726;BME280;41776;48.260;8.928;2023-05-02T09:11:00;52396.84;;;-145.69;100.00
1726;BME280;41776;48.260;8.928;2023-05-02T09:13:29;52408.75;;;-145.69;100.00
1726;BME280;41776;48.260;8.928;2023-05-02T09:15:56;52422.59;;;-145.69;100.00
1726;BME280;41776;48.260;8.928;2023-05-02T09:18:24;52438.44;;;-145.69;100.00
1726;BME280;41776;48.260;8.928;2023-05-02T09:20:52;52402.78;;;-145.69;100.00
1726;BME280;41776;48.260;8.928;2023-05-02T09:23:19;52434.47;;;-145.69;100.00
1726;BME280;41776;48.260;8.928;2023-05-02T09:25:46;52436.47;;;-145.69;100.00
1726;BME280;41776;48.260;8.928;2023-05-02T09:28:13;52482.00;;;-145.69;100.00
1726;BME280;41776;48.260;8.928;2023-05-02T09:30:40;52432.50;;;-145.69;100.00
1726;BME280;41776;48.260;8.928;2023-05-02T09:33:06;52412.69;;;-145.69;100.00
1726;BME280;41776;48.260;8.928;2023-05-02T09:35:33;52394.88;;;-145.69;100.00
1726;BME280;41776;48.260;8.928;2023-05-02T09:37:59;52412.69;;;-145.69;100.00
1726;BME280;41776;48.260;8.928;2023-05-02T09:40:26;52404.78;;;-145.69;100.00
1726;BME280;41776;48.260;8.928;2023-05-02T09:42:55;52424.59;;;-145.69;100.00
1726;BME280;41776;48.260;8.928;2023-05-02T09:45:24;52392.91;;;-145.69;100.00
1726;BME280;41776;48.260;8.928;2023-05-02T09:47:51;52412.69;;;-145.69;100.00
1726;BME280;41776;48.260;8.928;2023-05-02T09:50:34;52404.78;;;-145.69;100.00
1726;BME280;41776;48.260;8.928;2023-05-02T09:53:03;52402.78;;;-145.69;100.00
1726;BME280;41776;48.260;8.928;2023-05-02T09:55:29;52408.75;;;-145.69;100.00
1726;BME280;41776;48.260;8.928;2023-05-02T09:57:58;52392.91;;;-145.69;100.00
1726;BME280;41776;48.260;8.928;2023-05-02T10:00:38;52371.13;;;-145.69;100.00
1726;BME280;41776;48.260;8.928;2023-05-02T10:03:08;52351.31;;;-145.69;90.48
1726;BME280;41776;48.260;8.928;2023-05-02T10:05:36;52351.31;;;-145.69;88.93
1726;BME280;41776;48.260;8.928;2023-05-02T10:08:05;52400.81;;;-145.69;89.85
1726;BME280;41776;48.260;8.928;2023-05-02T10:10:32;52373.09;;;-145.69;91.03
1726;BME280;41776;48.260;8.928;2023-05-02T10:13:03;52365.16;;;-145.69;85.06
1726;BME280;41776;48.260;8.928;2023-05-02T10:15:30;52341.41;;;-145.69;92.58
1726;BME280;41776;48.260;8.928;2023-05-02T10:17:59;52381.00;;;-145.69;90.81
1726;BME280;41776;48.260;8.928;2023-05-02T10:20:30;52386.97;;;-145.69;82.18
1726;BME280;41776;48.260;8.928;2023-05-02T10:22:59;52353.28;;;-145.69;88.82
1726;BME280;41776;48.260;8.928;2023-05-02T10:25:29;52355.28;;;-145.69;83.22
1726;BME280;41776;48.260;8.928;2023-05-02T10:27:55;52351.31;;;-145.69;82.43
1726;BME280;41776;48.260;8.928;2023-05-02T10:30:28;52329.53;;;-145.69;75.74
1726;BME280;41776;48.260;8.928;2023-05-02T10:32:58;52357.25;;;-145.69;75.96
1726;BME280;41776;48.260;8.928;2023-05-02T10:35:25;52361.22;;;-145.69;78.94
1726;BME280;41776;48.260;8.928;2023-05-02T10:37:54;52365.16;;;-145.69;80.81
1726;BME280;41776;48.260;8.928;2023-05-02T10:40:21;52337.44;;;-145.69;77.19
1726;BME280;41776;48.260;8.928;2023-05-02T10:42:48;52361.22;;;-145.69;76.64
1726;BME280;41776;48.260;8.928;2023-05-02T10:45:32;52377.06;;;-145.69;70.86
1726;BME280;41776;48.260;8.928;2023-05-02T10:48:18;52369.13;;;-145.69;74.92
1726;BME280;41776;48.260;8.928;2023-05-02T10:50:49;52345.38;;;-145.69;80.22
1726;BME280;41776;48.260;8.928;2023-05-02T10:53:23;52321.59;;;-145.69;76.88
1726;BME280;41776;48.260;8.928;2023-05-02T10:56:15;52357.25;;;-145.69;70.93
1726;BME280;41776;48.260;8.928;2023-05-02T10:58:43;52355.28;;;-145.69;70.77
1726;BME280;41776;48.260;8.928;2023-05-02T11:01:33;52384.97;;;-145.69;74.08
1726;BME280;41776;48.260;8.928;2023-05-02T11:04:03;52373.09;;;-145.69;71.40
1726;BME280;41776;48.260;8.928;2023-05-02T11:06:31;52357.25;;;-145.69;76.26
1726;BME280;41776;48.260;8.928;2023-05-02T11:09:30;52361.22;;;-145.69;70.02
1726;BME280;41776;48.260;8.928;2023-05-02T11:11:57;52388.94;;;-145.69;78.10
1726;BME280;41776;48.260;8.928;2023-05-02T11:14:43;52377.06;;;-145.69;76.84
1726;BME280;41776;48.260;8.928;2023-05-02T11:17:16;52379.03;;;-145.69;80.00
1726;BME280;41776;48.260;8.928;2023-05-02T11:22:50;52321.59;;;-145.69;73.27
1726;BME280;41776;48.260;8.928;2023-05-02T11:25:28;52355.28;;;-145.69;69.26
1726;BME280;41776;48.260;8.928;2023-05-02T11:27:55;52345.38;;;-145.69;68.11
1726;BME280;41776;48.260;8.928;2023-05-02T11:30:36;52349.31;;;-145.69;64.52
1726;BME280;41776;48.260;8.928;2023-05-02T11:33:16;52313.69;;;-145.69;72.21
1726;BME280;41776;48.260;8.928;2023-05-02T11:35:45;52331.50;;;-145.69;66.43
1726;BME280;41776;48.260;8.928;2023-05-02T11:38:13;52327.53;;;-145.69;61.75
1726;BME280;41776;48.260;8.928;2023-05-02T11:40:56;52357.25;;;-145.69;57.15
1726;BME280;41776;48.260;8.928;2023-05-02T11:43:24;52345.38;;;-145.69;60.75
1726;BME280;41776;48.260;8.928;2023-05-02T11:45:51;52333.47;;;-145.69;65.95
1726;BME280;41776;48.260;8.928;2023-05-02T11:48:21;52377.06;;;-145.69;67.88
1726;BME280;41776;48.260;8.928;2023-05-02T11:50:49;52363.19;;;-145.69;68.71
1726;BME280;41776;48.260;8.928;2023-05-02T11:53:17;52343.38;;;-145.69;69.30
1726;BME280;41776;48.260;8.928;2023-05-02T11:55:45;52365.16;;;-145.69;68.38
1726;BME280;41776;48.260;8.928;2023-05-02T11:58:13;52327.53;;;-145.69;68.63
1726;BME280;41776;48.260;8.928;2023-05-02T12:00:40;52333.47;;;-145.69;67.31
1726;BME280;41776;48.260;8.928;2023-05-02T12:03:26;52327.53;;;-145.69;72.08
1726;BME280;41776;48.260;8.928;2023-05-02T12:05:52;52345.38;;;-145.69;70.11
1726;BME280;41776;48.260;8.928;2023-05-02T12:08:23;52361.22;;;-145.69;68.99
1726;BME280;41776;48.260;8.928;2023-05-02T12:10:51;52329.53;;;-145.69;66.36
1726;BME280;41776;48.260;8.928;2023-05-02T12:13:21;52369.13;;;-145.69;67.78
1726;BME280;41776;48.260;8.928;2023-05-02T12:15:49;52381.00;;;-145.69;68.31
1726;BME280;41776;48.260;8.928;2023-05-02T12:18:21;52329.53;;;-145.69;70.99
1726;BME280;41776;48.260;8.928;2023-05-02T12:20:50;52313.69;;;-145.69;60.39
1726;BME280;41776;48.260;8.928;2023-05-02T12:23:25;52321.59;;;-145.69;67.17
1726;BME280;41776;48.260;8.928;2023-05-02T12:25:52;52301.81;;;-145.69;59.34
1726;BME280;41776;48.260;8.928;2023-05-02T12:28:19;52333.47;;;-145.69;67.04
1726;BME280;41776;48.260;8.928;2023-05-02T12:30:48;52309.72;;;-145.69;67.95
1726;BME280;41776;48.260;8.928;2023-05-02T12:33:16;52309.72;;;-145.69;58.05
1726;BME280;41776;48.260;8.928;2023-05-02T12:35:43;52329.53;;;-145.69;60.49
1726;BME280;41776;48.260;8.928;2023-05-02T12:38:14;52329.53;;;-145.69;64.48
1726;BME280;41776;48.260;8.928;2023-05-02T12:40:51;52331.50;;;-145.69;58.68
1726;BME280;41776;48.260;8.928;2023-05-02T12:43:18;52309.72;;;-145.69;60.16
1726;BME280;41776;48.260;8.928;2023-05-02T12:45:47;52327.53;;;-145.69;54.08
1726;BME280;41776;48.260;8.928;2023-05-02T12:48:18;52349.31;;;-145.69;66.30
1726;BME280;41776;48.260;8.928;2023-05-02T12:50:45;52355.28;;;-145.69;70.53
1726;BME280;41776;48.260;8.928;2023-05-02T12:53:14;52317.66;;;-145.69;60.85